• Join FlightAware (Why Join?)
  • Login
  • US Flag 
02:16PM EDT


 

Airport Tracker/Info


-or-


 

Live Flight TrackerFlight Track Log ✈ UCA597 ✈ 16-Sep-2013 ✈ KIAD - KBGM

Flight Track Log - Related Links

Times and Time Zones

All times are in EDT time to prevent confusion due to time zone crossing. See the UCA597 flight status page for this flight to view local times or setup timezone preferences in your user account.

Time Position Orientation Groundspeed Altitude Reporting Facility
EDT Latitude Longitude Course Direction KTS MPH feet Rate Location/Type
09:35PM 38.9500 -77.5000 19° North 136 157 1,700  Level Potomac TRACON
09:36PM 39.0000 -77.5333 333° Northwest 173 199 3,000 1,380 Climbing Potomac TRACON
09:37PM 39.0333 -77.5500 339° North 174 200 4,500 1,500 Climbing Potomac TRACON
09:38PM 39.0833 -77.5333 15° North 167 192 6,200 1,380 Climbing Potomac TRACON
09:40PM 39.1583 -77.5269 North 168 193 8,600 1,260 Climbing Washington Center
09:41PM 38.9795 -77.4461 19° North  Level Estimated
09:41PM 39.2022 -77.5200 North 163 188 9,700  Level Washington Center
09:42PM 39.2461 -77.5133 North 163 188 10,900 1,140 Climbing Washington Center
09:43PM 39.2922 -77.5064 North 158 182 12,000 1,260 Climbing Washington Center
09:44PM 39.3381 -77.4994 North 164 189 13,400 1,380 Climbing Washington Center
09:45PM 39.3797 -77.4953 North 159 183 14,800 1,200 Climbing Washington Center
09:46PM 39.4217 -77.4883 North 159 183 15,900 840 Climbing Washington Center
09:48PM 39.5206 -77.4756 North 162 186 17,500 720 Climbing New York Center
09:49PM 39.5711 -77.4669 North 167 192 18,100 720 Climbing New York Center
09:50PM 39.6239 -77.4558 North 172 198 19,000 420 Climbing New York Center
09:51PM 39.6761 -77.4525 North 191 220 19,000  Level New York Center
09:52PM 39.7428 -77.4536 359° North 204 235 19,000  Level New York Center
09:53PM 39.7994 -77.4481 North 222 255 19,000  Level New York Center
09:54PM 39.8678 -77.4194 18° North 227 261 19,000  Level New York Center
09:55PM 39.9256 -77.3925 20° North 232 267 19,000  Level New York Center
09:56PM 39.9958 -77.3639 17° North 232 267 19,000  Level New York Center
09:57PM 40.0539 -77.3367 20° North 232 267 19,000  Level New York Center
09:58PM 40.1261 -77.3083 17° North 232 267 19,000  Level New York Center
09:59PM 40.1839 -77.2839 18° North 237 273 19,000 -180 Level New York Center
10:00PM 40.2544 -77.2522 19° North 237 273 18,700 -540 Descending New York Center
10:01PM 40.3119 -77.2278 18° North 237 273 18,000 -360 Descending New York Center
10:02PM 40.3847 -77.1964 18° North 247 284 18,000  Level New York Center
10:03PM 40.4422 -77.1717 18° North 242 278 18,000 -240 Level New York Center
10:04PM 40.5106 -77.1425 18° North 237 273 17,600 -720 Descending New York Center
10:05PM 40.5725 -77.1156 18° North 242 278 16,600 -1,140 Descending New York Center
10:06PM 40.6494 -77.0817 18° North 250 288 15,400 -840 Descending New York Center
10:07PM 40.7089 -77.0569 17° North 250 288 15,000 -240 Descending New York Center
10:08PM 40.7731 -77.0272 19° North 250 288 15,000  Level New York Center
10:09PM 40.8328 -77.0025 17° North 239 275 15,000  Level New York Center
10:10PM 40.8969 -76.9725 19° North 229 264 15,000  Level New York Center
10:11PM 40.9522 -76.9503 17° North 223 257 15,000  Level New York Center
10:12PM 41.0119 -76.9225 19° North 223 257 15,000  Level New York Center
10:13PM 41.0739 -76.8953 18° North 228 262 15,000  Level New York Center
10:14PM 41.1336 -76.8675 19° North 228 262 15,000  Level New York Center
10:15PM 41.1956 -76.8400 18° North 228 262 15,000  Level New York Center
10:16PM 41.2572 -76.8125 19° North 228 262 15,000  Level New York Center
10:17PM 41.3211 -76.7850 18° North 228 262 15,000  Level New York Center
10:18PM 41.3814 -76.7461 26° Northeast 233 268 15,000  Level New York Center
10:19PM 41.4422 -76.6989 30° Northeast 239 275 15,000  Level New York Center
10:20PM 41.4986 -76.6514 32° Northeast 244 281 15,000 -180 Level New York Center
10:21PM 41.5572 -76.6067 30° Northeast 244 281 14,700 -660 Descending New York Center
10:22PM 41.6178 -76.5592 30° Northeast 249 287 13,700 -1,020 Descending New York Center
10:23PM 41.6703 -76.5053 37° Northeast 249 287 12,700 -1,200 Descending New York Center
10:24PM 41.7233 -76.4458 40° Northeast 249 287 11,300 -1,440 Descending New York Center
10:25PM 41.7781 -76.3867 39° Northeast 238 274 9,900 -1,440 Descending New York Center
10:26PM 41.8244 -76.3292 43° Northeast 228 262 8,500 -1,380 Descending New York Center
10:27PM 41.8731 -76.2719 41° Northeast 223 257 7,200 -1,380 Descending New York Center
10:28PM 41.9167 -76.2256 38° Northeast 223 257 5,800 -1,380 Descending New York Center
10:29PM 41.9628 -76.1736 40° Northeast 223 257 4,500 -900 Descending New York Center
10:30PM 42.0089 -76.1214 40° Northeast 207 238 4,000 -420 Descending New York Center
10:31PM 42.0428 -76.0656 51° Northeast 194 223 3,700 -240 Descending New York Center
10:32PM 42.0789 -76.0014 53° Northeast 199 229 3,600 -120 Descending New York Center
10:33PM 42.1136 -75.9650 38° Northeast 183 211 3,500 -300 Descending New York Center
10:34PM 42.1456 -75.9481 21° North 149 171 3,100 -600 Descending New York Center
10:35PM 42.1767 -75.9531 353° North 120 138 2,300 2,940 Descending New York Center
10:36PM 42.2039 -75.9469 North 120 138 9,000 6,660 Climbing New York Center
10:38PM 42.2084 -75.9796 281° West  Level Estimated
10:45PM 42.2084 -75.9796 35° Northeast  Level Estimated
10:46PM 42.2084 -75.9796 35° Northeast  Level Estimated
10:47PM 42.2084 -75.9796 35° Northeast  Level Estimated
10:48PM 42.2084 -75.9796 35° Northeast  Level Estimated
10:49PM 42.2084 -75.9796 35° Northeast  Level Estimated
10:50PM 42.2084 -75.9796 35° Northeast  Level Estimated
10:51PM 42.2084 -75.9796 35° Northeast  Level Estimated